CSCL Fuzhou — ELYA7 — position and weather

sailwx.info

Track history (hours):
 
Tides and Currents Weather Stations Pressure Air Temp Water Temp Dewpoint Dewpoint Depression Visibility Wind Speed Wind Dir Waves Ship Positions

CSCL Fuzhou

Last reported at 2014-Sep-11 23:34 UTC. Time now 2014-Sep-17 01:37 UTC.
Position N 01°13' E 103°56'.

Length 207.4 m; beam 29.8 m; draft 11.4 m.

Type: Ship (hazmat cat A). MMSI: 636016483.

Date/timePositionNaut miles runAvg speedWind from/ knotsBaromVisibWave heightAir tempDewpointWater temp
2014-Sep-11 23:34N 01°13' E 103°56'9 9.0
2014-Sep-11 22:33N 01°13' E 103°47'4 4.2
2014-Sep-11 21:33N 01°17' E 103°46'0 0.0
2014-Sep-11 20:32N 01°17' E 103°46'0 0.0
2014-Sep-11 19:26N 01°17' E 103°46'0 0.0
2014-Sep-11 18:26N 01°17' E 103°46'0 0.0
2014-Sep-11 17:20N 01°17' E 103°46'0 0.0
2014-Sep-11 16:29N 01°17' E 103°46'0 0.1
2014-Sep-11 15:32N 01°17' E 103°46'0 0.1
2014-Sep-11 14:26N 01°17' E 103°46'0 0.0
2014-Sep-11 12:32N 01°17' E 103°46'0 0.0
2014-Sep-11 11:29N 01°17' E 103°46'0 0.0
2014-Sep-11 10:32N 01°17' E 103°46'0 0.0
2014-Sep-11 05:23N 01°17' E 103°46'0 0.1
2014-Sep-11 04:29N 01°17' E 103°46'0 0.0
2014-Sep-11 03:08N 01°17' E 103°46'0 0.0
2014-Sep-11 01:29N 01°17' E 103°46'0 0.0
2014-Sep-10 20:23N 01°17' E 103°46'0 0.0
2014-Sep-10 19:23N 01°17' E 103°46'0 0.0
2014-Sep-10 18:23N 01°17' E 103°46'0 0.0
2014-Sep-10 15:32N 01°17' E 103°46'0 0.0
2014-Sep-10 14:05N 01°17' E 103°46'0 0.0
2014-Sep-10 13:32N 01°17' E 103°46'0 0.0
2014-Sep-10 12:17N 01°17' E 103°46'0 0.0
2014-Sep-10 10:26N 01°17' E 103°46'0 0.0
2014-Sep-10 09:20N 01°17' E 103°46'0 0.0
2014-Sep-10 08:14N 01°17' E 103°46'0 0.0
2014-Sep-10 06:26N 01°17' E 103°46'1 1.5
2014-Sep-10 05:33N 01°16' E 103°46'9 8.5
2014-Sep-10 04:33N 01°14' E 103°54'6 6.1
2014-Sep-10 03:33N 01°15' E 103°60'  
2014-Sep-03 19:08N 01°15' E 104°04'916.2
2014-Sep-03 18:33N 01°13' E 103°55'1010.0
2014-Sep-03 17:33N 01°16' E 103°46'2 1.4
2014-Sep-03 16:24N 01°17' E 103°46'0 0.0
2014-Sep-03 15:30N 01°17' E 103°46'0 0.0
2014-Sep-03 13:30N 01°17' E 103°46'0 0.0
2014-Sep-03 12:30N 01°17' E 103°46'0 0.0
2014-Sep-03 11:30N 01°17' E 103°46'0 0.0
2014-Sep-03 10:30N 01°17' E 103°46'0 0.0
2014-Sep-03 09:24N 01°17' E 103°46'0 0.0
2014-Sep-03 08:12N 01°17' E 103°46'0 0.0
2014-Sep-03 07:18N 01°17' E 103°46'0 0.0
2014-Sep-03 01:30N 01°17' E 103°46'0 0.0
2014-Sep-03 00:12N 01°17' E 103°46'0 0.0
2014-Sep-02 22:24N 01°17' E 103°46'0 0.0
2014-Sep-02 21:30N 01°17' E 103°46'0 0.0
2014-Sep-02 19:33N 01°17' E 103°46'0 0.0
2014-Sep-02 18:30N 01°17' E 103°46'0 0.0
2014-Sep-02 17:30N 01°17' E 103°46'0 0.0
2014-Sep-02 16:30N 01°17' E 103°46'0 0.0
2014-Sep-02 14:30N 01°17' E 103°46'0 0.0
2014-Sep-02 13:30N 01°17' E 103°46'0 0.0
2014-Sep-02 10:12N 01°17' E 103°46'0 0.0
2014-Sep-02 09:30N 01°17' E 103°46'1 0.5
2014-Sep-02 07:22N 01°17' E 103°45'7 8.7
2014-Sep-02 06:32N 01°12' E 103°50'7 7.4
2014-Sep-02 05:33N 01°15' E 103°57'9 8.4
2014-Sep-02 04:33N 01°16' E 104°06'  
Track history (hours):
 
Tides and Currents Weather Stations Pressure Air Temp Water Temp Dewpoint Dewpoint Depression Visibility Wind Speed Wind Dir Waves Ship Positions

CSCL Fuzhou

Last reported at 2014-Sep-11 23:34 UTC. Time now 2014-Sep-17 01:37 UTC.
Position N 01°13' E 103°56'.

Length 207.4 m; beam 29.8 m; draft 11.4 m.

Type: Ship (hazmat cat A). MMSI: 636016483.

Date/timePositionNaut miles runAvg speedWind from/ knotsBaromVisibWave heightAir tempDewpointWater temp
2014-Sep-11 23:34N 01°13' E 103°56'9 9.0
2014-Sep-11 22:33N 01°13' E 103°47'4 4.2
2014-Sep-11 21:33N 01°17' E 103°46'0 0.0
2014-Sep-11 20:32N 01°17' E 103°46'0 0.0
2014-Sep-11 19:26N 01°17' E 103°46'0 0.0
2014-Sep-11 18:26N 01°17' E 103°46'0 0.0
2014-Sep-11 17:20N 01°17' E 103°46'0 0.0
2014-Sep-11 16:29N 01°17' E 103°46'0 0.1
2014-Sep-11 15:32N 01°17' E 103°46'0 0.1
2014-Sep-11 14:26N 01°17' E 103°46'0 0.0
2014-Sep-11 12:32N 01°17' E 103°46'0 0.0
2014-Sep-11 11:29N 01°17' E 103°46'0 0.0
2014-Sep-11 10:32N 01°17' E 103°46'0 0.0
2014-Sep-11 05:23N 01°17' E 103°46'0 0.1
2014-Sep-11 04:29N 01°17' E 103°46'0 0.0
2014-Sep-11 03:08N 01°17' E 103°46'0 0.0
2014-Sep-11 01:29N 01°17' E 103°46'0 0.0
2014-Sep-10 20:23N 01°17' E 103°46'0 0.0
2014-Sep-10 19:23N 01°17' E 103°46'0 0.0
2014-Sep-10 18:23N 01°17' E 103°46'0 0.0
2014-Sep-10 15:32N 01°17' E 103°46'0 0.0
2014-Sep-10 14:05N 01°17' E 103°46'0 0.0
2014-Sep-10 13:32N 01°17' E 103°46'0 0.0
2014-Sep-10 12:17N 01°17' E 103°46'0 0.0
2014-Sep-10 10:26N 01°17' E 103°46'0 0.0
2014-Sep-10 09:20N 01°17' E 103°46'0 0.0
2014-Sep-10 08:14N 01°17' E 103°46'0 0.0
2014-Sep-10 06:26N 01°17' E 103°46'1 1.5
2014-Sep-10 05:33N 01°16' E 103°46'9 8.5
2014-Sep-10 04:33N 01°14' E 103°54'6 6.1
2014-Sep-10 03:33N 01°15' E 103°60'  
2014-Sep-03 19:08N 01°15' E 104°04'916.2
2014-Sep-03 18:33N 01°13' E 103°55'1010.0
2014-Sep-03 17:33N 01°16' E 103°46'2 1.4
2014-Sep-03 16:24N 01°17' E 103°46'0 0.0
2014-Sep-03 15:30N 01°17' E 103°46'0 0.0
2014-Sep-03 13:30N 01°17' E 103°46'0 0.0
2014-Sep-03 12:30N 01°17' E 103°46'0 0.0
2014-Sep-03 11:30N 01°17' E 103°46'0 0.0
2014-Sep-03 10:30N 01°17' E 103°46'0 0.0
2014-Sep-03 09:24N 01°17' E 103°46'0 0.0
2014-Sep-03 08:12N 01°17' E 103°46'0 0.0
2014-Sep-03 07:18N 01°17' E 103°46'0 0.0
2014-Sep-03 01:30N 01°17' E 103°46'0 0.0
2014-Sep-03 00:12N 01°17' E 103°46'0 0.0
2014-Sep-02 22:24N 01°17' E 103°46'0 0.0
2014-Sep-02 21:30N 01°17' E 103°46'0 0.0
2014-Sep-02 19:33N 01°17' E 103°46'0 0.0
2014-Sep-02 18:30N 01°17' E 103°46'0 0.0
2014-Sep-02 17:30N 01°17' E 103°46'0 0.0
2014-Sep-02 16:30N 01°17' E 103°46'0 0.0
2014-Sep-02 14:30N 01°17' E 103°46'0 0.0
2014-Sep-02 13:30N 01°17' E 103°46'0 0.0
2014-Sep-02 10:12N 01°17' E 103°46'0 0.0
2014-Sep-02 09:30N 01°17' E 103°46'1 0.5
2014-Sep-02 07:22N 01°17' E 103°45'7 8.7
2014-Sep-02 06:32N 01°12' E 103°50'7 7.4
2014-Sep-02 05:33N 01°15' E 103°57'9 8.4
2014-Sep-02 04:33N 01°16' E 104°06'  

Dump ship's entire track history